sensor_id;sensor_type;location;lat;lon;timestamp;temperature;humidity
5956;DHT22;3004;48.080;11.600;2022-11-20T00:01:40;4.10;99.90
5956;DHT22;3004;48.080;11.600;2022-11-20T00:04:12;4.10;99.90
5956;DHT22;3004;48.080;11.600;2022-11-20T00:06:41;4.10;99.90
5956;DHT22;3004;48.080;11.600;2022-11-20T00:09:10;4.10;99.90
5956;DHT22;3004;48.080;11.600;2022-11-20T00:11:38;4.10;99.90
5956;DHT22;3004;48.080;11.600;2022-11-20T00:14:13;4.10;99.90
5956;DHT22;3004;48.080;11.600;2022-11-20T00:16:43;4.10;99.90
5956;DHT22;3004;48.080;11.600;2022-11-20T00:19:12;4.10;99.90
5956;DHT22;3004;48.080;11.600;2022-11-20T00:21:41;4.20;99.90
5956;DHT22;3004;48.080;11.600;2022-11-20T00:24:12;4.20;99.90
5956;DHT22;3004;48.080;11.600;2022-11-20T00:26:42;4.20;99.90
5956;DHT22;3004;48.080;11.600;2022-11-20T00:29:09;4.20;99.90
5956;DHT22;3004;48.080;11.600;2022-11-20T00:31:37;4.20;99.90
5956;DHT22;3004;48.080;11.600;2022-11-20T00:34:05;4.20;99.90
5956;DHT22;3004;48.080;11.600;2022-11-20T00:36:33;4.30;99.90
5956;DHT22;3004;48.080;11.600;2022-11-20T00:39:11;4.40;99.90
5956;DHT22;3004;48.080;11.600;2022-11-20T00:41:44;4.40;99.90
5956;DHT22;3004;48.080;11.600;2022-11-20T00:44:11;4.40;99.90
5956;DHT22;3004;48.080;11.600;2022-11-20T00:46:38;4.40;99.90
5956;DHT22;3004;48.080;11.600;2022-11-20T00:49:06;4.40;99.90
5956;DHT22;3004;48.080;11.600;2022-11-20T00:51:35;4.50;99.90
5956;DHT22;3004;48.080;11.600;2022-11-20T00:54:02;4.40;99.90
5956;DHT22;3004;48.080;11.600;2022-11-20T00:56:30;4.40;99.90
5956;DHT22;3004;48.080;11.600;2022-11-20T00:59:00;4.40;99.90
5956;DHT22;3004;48.080;11.600;2022-11-20T01:01:37;4.40;99.90
5956;DHT22;3004;48.080;11.600;2022-11-20T01:04:05;4.30;99.90
5956;DHT22;3004;48.080;11.600;2022-11-20T01:06:35;4.30;99.90
5956;DHT22;3004;48.080;11.600;2022-11-20T01:09:05;4.40;99.90
5956;DHT22;3004;48.080;11.600;2022-11-20T01:11:34;4.40;99.90
5956;DHT22;3004;48.080;11.600;2022-11-20T01:14:06;4.40;99.90
5956;DHT22;3004;48.080;11.600;2022-11-20T01:16:39;4.40;99.90
5956;DHT22;3004;48.080;11.600;2022-11-20T01:19:11;4.40;99.90
5956;DHT22;3004;48.080;11.600;2022-11-20T01:21:57;4.50;99.90
5956;DHT22;3004;48.080;11.600;2022-11-20T01:24:25;4.50;99.90
5956;DHT22;3004;48.080;11.600;2022-11-20T01:26:57;4.40;99.90
5956;DHT22;3004;48.080;11.600;2022-11-20T01:29:45;4.50;99.90
5956;DHT22;3004;48.080;11.600;2022-11-20T01:32:31;4.50;99.90
5956;DHT22;3004;48.080;11.600;2022-11-20T01:34:59;4.50;99.90
5956;DHT22;3004;48.080;11.600;2022-11-20T01:37:26;4.50;99.90
5956;DHT22;3004;48.080;11.600;2022-11-20T01:39:59;4.50;99.90
5956;DHT22;3004;48.080;11.600;2022-11-20T01:42:26;4.50;99.90
5956;DHT22;3004;48.080;11.600;2022-11-20T01:45:50;4.50;99.90
5956;DHT22;3004;48.080;11.600;2022-11-20T01:48:25;4.50;99.90
5956;DHT22;3004;48.080;11.600;2022-11-20T01:50:53;4.50;99.90
5956;DHT22;3004;48.080;11.600;2022-11-20T01:53:27;4.50;99.90
5956;DHT22;3004;48.080;11.600;2022-11-20T01:56:03;4.50;99.90
5956;DHT22;3004;48.080;11.600;2022-11-20T01:58:35;4.50;99.90
5956;DHT22;3004;48.080;11.600;2022-11-20T02:01:10;4.50;99.90
5956;DHT22;3004;48.080;11.600;2022-11-20T02:03:50;4.50;99.90
5956;DHT22;3004;48.080;11.600;2022-11-20T02:06:38;4.50;99.90
5956;DHT22;3004;48.080;11.600;2022-11-20T02:09:11;4.50;99.90
5956;DHT22;3004;48.080;11.600;2022-11-20T02:11:40;4.60;99.90
5956;DHT22;3004;48.080;11.600;2022-11-20T02:14:17;4.60;99.90
5956;DHT22;3004;48.080;11.600;2022-11-20T02:16:49;4.60;99.90
5956;DHT22;3004;48.080;11.600;2022-11-20T02:19:23;4.60;99.90
5956;DHT22;3004;48.080;11.600;2022-11-20T02:22:02;4.60;99.90
5956;DHT22;3004;48.080;11.600;2022-11-20T02:24:35;4.60;99.90
5956;DHT22;3004;48.080;11.600;2022-11-20T02:27:13;4.70;99.90
5956;DHT22;3004;48.080;11.600;2022-11-20T02:29:50;4.60;99.90
5956;DHT22;3004;48.080;11.600;2022-11-20T02:32:25;4.60;99.90
5956;DHT22;3004;48.080;11.600;2022-11-20T02:34:56;4.60;99.90
5956;DHT22;3004;48.080;11.600;2022-11-20T02:37:30;4.70;99.90
5956;DHT22;3004;48.080;11.600;2022-11-20T02:40:02;4.60;99.90
5956;DHT22;3004;48.080;11.600;2022-11-20T02:42:35;4.60;99.90
5956;DHT22;3004;48.080;11.600;2022-11-20T02:46:07;4.60;99.90
5956;DHT22;3004;48.080;11.600;2022-11-20T02:48:36;4.60;99.90
5956;DHT22;3004;48.080;11.600;2022-11-20T02:51:04;4.60;99.90
5956;DHT22;3004;48.080;11.600;2022-11-20T02:53:34;4.60;99.90
5956;DHT22;3004;48.080;11.600;2022-11-20T02:56:01;4.60;99.90
5956;DHT22;3004;48.080;11.600;2022-11-20T02:58:29;4.60;99.90
5956;DHT22;3004;48.080;11.600;2022-11-20T03:00:59;4.60;99.90
5956;DHT22;3004;48.080;11.600;2022-11-20T03:03:26;4.60;99.90
5956;DHT22;3004;48.080;11.600;2022-11-20T03:05:55;4.60;99.90
5956;DHT22;3004;48.080;11.600;2022-11-20T03:08:22;4.60;99.90
5956;DHT22;3004;48.080;11.600;2022-11-20T03:10:49;4.60;99.90
5956;DHT22;3004;48.080;11.600;2022-11-20T03:13:16;4.60;99.90
5956;DHT22;3004;48.080;11.600;2022-11-20T03:15:50;4.60;99.90
5956;DHT22;3004;48.080;11.600;2022-11-20T03:18:19;4.60;99.90
5956;DHT22;3004;48.080;11.600;2022-11-20T03:20:46;4.60;99.90
5956;DHT22;3004;48.080;11.600;2022-11-20T03:23:13;4.60;99.90
5956;DHT22;3004;48.080;11.600;2022-11-20T03:25:46;4.60;99.90
5956;DHT22;3004;48.080;11.600;2022-11-20T03:28:19;4.60;99.90
5956;DHT22;3004;48.080;11.600;2022-11-20T03:30:57;4.60;99.90
5956;DHT22;3004;48.080;11.600;2022-11-20T03:33:34;4.60;99.90
5956;DHT22;3004;48.080;11.600;2022-11-20T03:36:16;4.60;99.90
5956;DHT22;3004;48.080;11.600;2022-11-20T03:38:56;4.70;99.90
5956;DHT22;3004;48.080;11.600;2022-11-20T03:41:36;4.70;99.90
5956;DHT22;3004;48.080;11.600;2022-11-20T03:44:09;4.70;99.90
5956;DHT22;3004;48.080;11.600;2022-11-20T03:46:36;4.60;99.90
5956;DHT22;3004;48.080;11.600;2022-11-20T03:49:05;4.70;99.90
5956;DHT22;3004;48.080;11.600;2022-11-20T03:51:34;4.70;99.90
5956;DHT22;3004;48.080;11.600;2022-11-20T03:54:03;4.70;99.90
5956;DHT22;3004;48.080;11.600;2022-11-20T03:56:34;4.60;99.90
5956;DHT22;3004;48.080;11.600;2022-11-20T03:59:01;4.60;99.90
5956;DHT22;3004;48.080;11.600;2022-11-20T04:01:30;4.60;99.90
5956;DHT22;3004;48.080;11.600;2022-11-20T04:03:58;4.60;99.90
5956;DHT22;3004;48.080;11.600;2022-11-20T04:06:33;4.60;99.90
5956;DHT22;3004;48.080;11.600;2022-11-20T04:09:00;4.60;99.90
5956;DHT22;3004;48.080;11.600;2022-11-20T04:11:32;4.60;99.90
5956;DHT22;3004;48.080;11.600;2022-11-20T04:14:03;4.60;99.90
5956;DHT22;3004;48.080;11.600;2022-11-20T04:16:34;4.60;99.90
5956;DHT22;3004;48.080;11.600;2022-11-20T04:19:03;4.50;99.90
5956;DHT22;3004;48.080;11.600;2022-11-20T04:21:32;4.50;99.90
5956;DHT22;3004;48.080;11.600;2022-11-20T04:24:05;4.50;99.90
5956;DHT22;3004;48.080;11.600;2022-11-20T04:26:34;4.50;99.90
5956;DHT22;3004;48.080;11.600;2022-11-20T04:29:04;4.50;99.90
5956;DHT22;3004;48.080;11.600;2022-11-20T04:34:53;4.50;99.90
5956;DHT22;3004;48.080;11.600;2022-11-20T04:37:22;4.60;99.90
5956;DHT22;3004;48.080;11.600;2022-11-20T04:39:49;4.50;99.90
5956;DHT22;3004;48.080;11.600;2022-11-20T04:42:18;4.50;99.90
5956;DHT22;3004;48.080;11.600;2022-11-20T04:44:58;4.50;99.90
5956;DHT22;3004;48.080;11.600;2022-11-20T04:47:25;4.50;99.90
5956;DHT22;3004;48.080;11.600;2022-11-20T04:49:52;4.50;99.90
5956;DHT22;3004;48.080;11.600;2022-11-20T04:52:19;4.50;99.90
5956;DHT22;3004;48.080;11.600;2022-11-20T04:54:48;4.50;99.90
5956;DHT22;3004;48.080;11.600;2022-11-20T04:57:20;4.50;99.90
5956;DHT22;3004;48.080;11.600;2022-11-20T04:59:48;4.60;99.90
5956;DHT22;3004;48.080;11.600;2022-11-20T05:02:18;4.60;99.90
5956;DHT22;3004;48.080;11.600;2022-11-20T05:04:45;4.60;99.90
5956;DHT22;3004;48.080;11.600;2022-11-20T05:07:12;4.70;99.90
5956;DHT22;3004;48.080;11.600;2022-11-20T05:09:42;4.60;99.90
5956;DHT22;3004;48.080;11.600;2022-11-20T05:12:11;4.60;99.90
5956;DHT22;3004;48.080;11.600;2022-11-20T05:14:40;4.60;99.90
5956;DHT22;3004;48.080;11.600;2022-11-20T05:17:10;4.60;99.90
5956;DHT22;3004;48.080;11.600;2022-11-20T05:19:38;4.60;99.90
5956;DHT22;3004;48.080;11.600;2022-11-20T05:24:48;4.60;99.90
5956;DHT22;3004;48.080;11.600;2022-11-20T05:27:16;4.70;99.90
5956;DHT22;3004;48.080;11.600;2022-11-20T05:29:47;4.60;99.90
5956;DHT22;3004;48.080;11.600;2022-11-20T05:32:14;4.60;99.90
5956;DHT22;3004;48.080;11.600;2022-11-20T05:34:42;4.60;99.90
5956;DHT22;3004;48.080;11.600;2022-11-20T05:37:09;4.70;99.90
5956;DHT22;3004;48.080;11.600;2022-11-20T05:39:36;4.70;99.90
5956;DHT22;3004;48.080;11.600;2022-11-20T05:42:06;4.70;99.90
5956;DHT22;3004;48.080;11.600;2022-11-20T05:44:52;4.80;99.90
5956;DHT22;3004;48.080;11.600;2022-11-20T05:47:31;4.70;99.90
5956;DHT22;3004;48.080;11.600;2022-11-20T05:49:59;4.60;99.90
5956;DHT22;3004;48.080;11.600;2022-11-20T05:52:29;4.60;99.90
5956;DHT22;3004;48.080;11.600;2022-11-20T05:55:17;4.60;99.90
5956;DHT22;3004;48.080;11.600;2022-11-20T05:57:59;4.60;99.90
5956;DHT22;3004;48.080;11.600;2022-11-20T06:00:32;4.60;99.90
5956;DHT22;3004;48.080;11.600;2022-11-20T06:03:01;4.60;99.90
5956;DHT22;3004;48.080;11.600;2022-11-20T06:05:28;4.50;99.90
5956;DHT22;3004;48.080;11.600;2022-11-20T06:07:55;4.50;99.90
5956;DHT22;3004;48.080;11.600;2022-11-20T06:20:20;4.50;99.90
5956;DHT22;3004;48.080;11.600;2022-11-20T06:26:50;4.40;99.90
5956;DHT22;3004;48.080;11.600;2022-11-20T06:29:28;4.40;99.90
5956;DHT22;3004;48.080;11.600;2022-11-20T06:42:36;4.30;99.90
5956;DHT22;3004;48.080;11.600;2022-11-20T06:45:14;4.30;99.90
5956;DHT22;3004;48.080;11.600;2022-11-20T06:47:45;4.30;99.90
5956;DHT22;3004;48.080;11.600;2022-11-20T06:50:12;4.30;99.90
5956;DHT22;3004;48.080;11.600;2022-11-20T06:53:01;4.30;99.90
5956;DHT22;3004;48.080;11.600;2022-11-20T06:55:59;4.20;99.90
5956;DHT22;3004;48.080;11.600;2022-11-20T07:08:49;4.40;99.90
5956;DHT22;3004;48.080;11.600;2022-11-20T07:11:48;4.60;99.90
5956;DHT22;3004;48.080;11.600;2022-11-20T08:06:55;5.10;99.90
5956;DHT22;3004;48.080;11.600;2022-11-20T08:12:53;5.20;99.90
5956;DHT22;3004;48.080;11.600;2022-11-20T08:19:19;5.20;99.90
5956;DHT22;3004;48.080;11.600;2022-11-20T08:21:46;5.30;99.90
5956;DHT22;3004;48.080;11.600;2022-11-20T08:31:22;5.40;99.90
5956;DHT22;3004;48.080;11.600;2022-11-20T08:37:17;5.40;99.90
5956;DHT22;3004;48.080;11.600;2022-11-20T08:46:32;5.50;99.90
5956;DHT22;3004;48.080;11.600;2022-11-20T08:49:02;5.50;99.90
5956;DHT22;3004;48.080;11.600;2022-11-20T08:51:32;5.60;99.90
5956;DHT22;3004;48.080;11.600;2022-11-20T08:54:00;5.60;99.90
5956;DHT22;3004;48.080;11.600;2022-11-20T08:56:27;5.70;99.90
5956;DHT22;3004;48.080;11.600;2022-11-20T08:58:54;5.70;99.90
5956;DHT22;3004;48.080;11.600;2022-11-20T09:01:22;5.80;99.90
5956;DHT22;3004;48.080;11.600;2022-11-20T09:03:57;5.80;99.90
5956;DHT22;3004;48.080;11.600;2022-11-20T09:06:25;5.80;99.90
5956;DHT22;3004;48.080;11.600;2022-11-20T09:08:52;5.80;99.90
5956;DHT22;3004;48.080;11.600;2022-11-20T09:11:22;5.80;99.90
5956;DHT22;3004;48.080;11.600;2022-11-20T09:13:51;5.80;99.90
5956;DHT22;3004;48.080;11.600;2022-11-20T09:16:21;5.90;99.90
5956;DHT22;3004;48.080;11.600;2022-11-20T09:18:54;5.90;99.90
5956;DHT22;3004;48.080;11.600;2022-11-20T09:24:57;6.00;99.90
5956;DHT22;3004;48.080;11.600;2022-11-20T09:34:12;6.10;99.90
5956;DHT22;3004;48.080;11.600;2022-11-20T09:36:44;6.20;99.90
5956;DHT22;3004;48.080;11.600;2022-11-20T09:39:16;6.20;99.90
5956;DHT22;3004;48.080;11.600;2022-11-20T09:41:55;6.20;99.90
5956;DHT22;3004;48.080;11.600;2022-11-20T09:44:53;6.30;99.90
5956;DHT22;3004;48.080;11.600;2022-11-20T09:47:57;6.40;99.90
5956;DHT22;3004;48.080;11.600;2022-11-20T09:54:09;6.40;99.90
5956;DHT22;3004;48.080;11.600;2022-11-20T09:56:41;6.50;99.90
5956;DHT22;3004;48.080;11.600;2022-11-20T09:59:32;6.60;99.90
5956;DHT22;3004;48.080;11.600;2022-11-20T10:02:01;6.70;99.90
5956;DHT22;3004;48.080;11.600;2022-11-20T10:04:31;6.80;99.90
5956;DHT22;3004;48.080;11.600;2022-11-20T10:07:04;6.70;99.90
5956;DHT22;3004;48.080;11.600;2022-11-20T10:09:40;6.80;99.90
5956;DHT22;3004;48.080;11.600;2022-11-20T10:12:14;6.90;99.90
5956;DHT22;3004;48.080;11.600;2022-11-20T10:15:01;6.90;99.90
5956;DHT22;3004;48.080;11.600;2022-11-20T10:18:08;7.10;99.90
5956;DHT22;3004;48.080;11.600;2022-11-20T10:21:00;7.00;99.90
5956;DHT22;3004;48.080;11.600;2022-11-20T10:24:08;7.10;99.90
5956;DHT22;3004;48.080;11.600;2022-11-20T10:26:55;7.20;99.90
5956;DHT22;3004;48.080;11.600;2022-11-20T10:29:47;7.10;99.90
5956;DHT22;3004;48.080;11.600;2022-11-20T10:32:29;7.30;99.90
5956;DHT22;3004;48.080;11.600;2022-11-20T10:35:07;7.50;99.90
5956;DHT22;3004;48.080;11.600;2022-11-20T10:37:56;7.50;99.90
5956;DHT22;3004;48.080;11.600;2022-11-20T10:40:42;7.70;99.90
5956;DHT22;3004;48.080;11.600;2022-11-20T10:43:18;8.00;99.90
5956;DHT22;3004;48.080;11.600;2022-11-20T11:00:19;7.90;99.90
5956;DHT22;3004;48.080;11.600;2022-11-20T11:02:54;7.80;99.90
5956;DHT22;3004;48.080;11.600;2022-11-20T11:09:11;7.60;99.90
5956;DHT22;3004;48.080;11.600;2022-11-20T11:35:02;7.30;99.90
5956;DHT22;3004;48.080;11.600;2022-11-20T11:37:33;7.30;99.90
5956;DHT22;3004;48.080;11.600;2022-11-20T11:40:36;7.40;99.90
5956;DHT22;3004;48.080;11.600;2022-11-20T12:03:42;8.30;99.90
5956;DHT22;3004;48.080;11.600;2022-11-20T12:06:25;8.10;99.90
5956;DHT22;3004;48.080;11.600;2022-11-20T12:25:49;7.70;99.90
5956;DHT22;3004;48.080;11.600;2022-11-20T12:31:47;7.10;99.90
5956;DHT22;3004;48.080;11.600;2022-11-20T12:34:35;6.80;99.90
5956;DHT22;3004;48.080;11.600;2022-11-20T12:40:51;6.40;99.90
5956;DHT22;3004;48.080;11.600;2022-11-20T12:43:27;6.30;99.90
5956;DHT22;3004;48.080;11.600;2022-11-20T12:46:23;6.30;99.90
5956;DHT22;3004;48.080;11.600;2022-11-20T12:52:18;6.20;99.90
5956;DHT22;3004;48.080;11.600;2022-11-20T12:55:11;6.20;99.90
5956;DHT22;3004;48.080;11.600;2022-11-20T12:57:50;6.10;99.90
5956;DHT22;3004;48.080;11.600;2022-11-20T13:00:34;6.00;99.90
5956;DHT22;3004;48.080;11.600;2022-11-20T13:13:25;6.00;99.90
5956;DHT22;3004;48.080;11.600;2022-11-20T13:16:01;6.00;99.90
5956;DHT22;3004;48.080;11.600;2022-11-20T13:35:58;5.30;99.90
5956;DHT22;3004;48.080;11.600;2022-11-20T13:38:43;5.20;99.90
5956;DHT22;3004;48.080;11.600;2022-11-20T13:44:37;5.20;99.90
5956;DHT22;3004;48.080;11.600;2022-11-20T13:57:20;5.40;99.90
5956;DHT22;3004;48.080;11.600;2022-11-20T13:59:57;5.50;99.90
5956;DHT22;3004;48.080;11.600;2022-11-20T14:02:27;5.60;99.90
5956;DHT22;3004;48.080;11.600;2022-11-20T14:04:57;5.60;99.90
5956;DHT22;3004;48.080;11.600;2022-11-20T14:07:37;5.70;99.90
5956;DHT22;3004;48.080;11.600;2022-11-20T14:10:20;5.70;99.90
5956;DHT22;3004;48.080;11.600;2022-11-20T14:12:51;5.70;99.90
5956;DHT22;3004;48.080;11.600;2022-11-20T14:15:37;5.80;99.90
5956;DHT22;3004;48.080;11.600;2022-11-20T14:28:23;5.90;99.90
5956;DHT22;3004;48.080;11.600;2022-11-20T14:30:53;6.00;99.90
5956;DHT22;3004;48.080;11.600;2022-11-20T14:33:26;6.00;99.90
5956;DHT22;3004;48.080;11.600;2022-11-20T15:06:28;6.00;99.90
5956;DHT22;3004;48.080;11.600;2022-11-20T15:09:04;5.90;99.90
5956;DHT22;3004;48.080;11.600;2022-11-20T15:11:34;6.00;99.90
5956;DHT22;3004;48.080;11.600;2022-11-20T15:14:04;5.90;99.90
5956;DHT22;3004;48.080;11.600;2022-11-20T15:16:36;5.90;99.90
5956;DHT22;3004;48.080;11.600;2022-11-20T15:19:13;5.90;99.90
5956;DHT22;3004;48.080;11.600;2022-11-20T15:28:34;5.80;99.90
5956;DHT22;3004;48.080;11.600;2022-11-20T15:31:08;5.70;99.90
5956;DHT22;3004;48.080;11.600;2022-11-20T15:36:58;5.80;99.90
5956;DHT22;3004;48.080;11.600;2022-11-20T15:39:31;5.70;99.90
5956;DHT22;3004;48.080;11.600;2022-11-20T15:45:32;5.70;99.90
5956;DHT22;3004;48.080;11.600;2022-11-20T15:51:44;5.60;99.90
5956;DHT22;3004;48.080;11.600;2022-11-20T16:00:58;5.40;99.90
5956;DHT22;3004;48.080;11.600;2022-11-20T16:06:53;5.10;99.90
5956;DHT22;3004;48.080;11.600;2022-11-20T16:12:54;5.10;99.90
5956;DHT22;3004;48.080;11.600;2022-11-20T16:19:09;4.90;99.90
5956;DHT22;3004;48.080;11.600;2022-11-20T16:21:36;4.80;99.90
5956;DHT22;3004;48.080;11.600;2022-11-20T16:24:09;4.70;99.90
5956;DHT22;3004;48.080;11.600;2022-11-20T16:30:11;4.50;99.90
5956;DHT22;3004;48.080;11.600;2022-11-20T16:32:40;4.30;99.90
5956;DHT22;3004;48.080;11.600;2022-11-20T16:35:16;4.40;99.90
5956;DHT22;3004;48.080;11.600;2022-11-20T16:41:07;4.10;99.90
5956;DHT22;3004;48.080;11.600;2022-11-20T16:43:49;4.00;99.90
5956;DHT22;3004;48.080;11.600;2022-11-20T16:49:38;3.80;99.90
5956;DHT22;3004;48.080;11.600;2022-11-20T16:52:12;3.70;99.90
5956;DHT22;3004;48.080;11.600;2022-11-20T16:54:55;3.60;99.90
5956;DHT22;3004;48.080;11.600;2022-11-20T17:00:55;3.40;99.90
5956;DHT22;3004;48.080;11.600;2022-11-20T17:03:22;3.30;99.90
5956;DHT22;3004;48.080;11.600;2022-11-20T17:05:52;3.20;99.90
5956;DHT22;3004;48.080;11.600;2022-11-20T17:08:36;3.10;99.90
5956;DHT22;3004;48.080;11.600;2022-11-20T17:11:08;3.00;99.90
5956;DHT22;3004;48.080;11.600;2022-11-20T17:19:58;2.80;99.90
5956;DHT22;3004;48.080;11.600;2022-11-20T17:22:27;2.80;99.90
5956;DHT22;3004;48.080;11.600;2022-11-20T17:25:13;2.80;99.90
5956;DHT22;3004;48.080;11.600;2022-11-20T17:31:07;2.70;99.90
5956;DHT22;3004;48.080;11.600;2022-11-20T17:33:36;2.60;99.90
5956;DHT22;3004;48.080;11.600;2022-11-20T17:36:04;2.60;99.90
5956;DHT22;3004;48.080;11.600;2022-11-20T17:38:47;2.50;99.90
5956;DHT22;3004;48.080;11.600;2022-11-20T17:51:19;2.10;99.90
5956;DHT22;3004;48.080;11.600;2022-11-20T18:00:40;1.90;99.90
5956;DHT22;3004;48.080;11.600;2022-11-20T18:07:01;1.70;99.90
5956;DHT22;3004;48.080;11.600;2022-11-20T18:09:30;1.60;99.90
5956;DHT22;3004;48.080;11.600;2022-11-20T18:11:57;1.60;99.90
5956;DHT22;3004;48.080;11.600;2022-11-20T18:14:24;1.60;99.90
5956;DHT22;3004;48.080;11.600;2022-11-20T18:16:58;1.50;99.90
5956;DHT22;3004;48.080;11.600;2022-11-20T18:22:51;1.60;99.90
5956;DHT22;3004;48.080;11.600;2022-11-20T18:25:23;1.50;99.90
5956;DHT22;3004;48.080;11.600;2022-11-20T18:27:52;1.50;99.90
5956;DHT22;3004;48.080;11.600;2022-11-20T18:34:04;1.50;99.90
5956;DHT22;3004;48.080;11.600;2022-11-20T18:40:15;1.50;99.90
5956;DHT22;3004;48.080;11.600;2022-11-20T18:53:07;1.40;99.90
5956;DHT22;3004;48.080;11.600;2022-11-20T18:55:37;1.40;99.90
5956;DHT22;3004;48.080;11.600;2022-11-20T19:01:32;1.20;99.90
5956;DHT22;3004;48.080;11.600;2022-11-20T19:11:14;1.00;99.90
5956;DHT22;3004;48.080;11.600;2022-11-20T19:34:51;1.00;99.90
5956;DHT22;3004;48.080;11.600;2022-11-20T19:37:21;1.10;99.90
5956;DHT22;3004;48.080;11.600;2022-11-20T19:39:52;1.00;99.90
5956;DHT22;3004;48.080;11.600;2022-11-20T19:42:24;1.10;99.90
5956;DHT22;3004;48.080;11.600;2022-11-20T19:44:54;1.10;99.90
5956;DHT22;3004;48.080;11.600;2022-11-20T19:47:25;1.20;99.90
5956;DHT22;3004;48.080;11.600;2022-11-20T19:50:23;1.20;99.90
5956;DHT22;3004;48.080;11.600;2022-11-20T19:52:52;1.20;99.90
5956;DHT22;3004;48.080;11.600;2022-11-20T19:55:26;1.20;99.90
5956;DHT22;3004;48.080;11.600;2022-11-20T19:57:58;1.20;99.90
5956;DHT22;3004;48.080;11.600;2022-11-20T20:00:25;1.20;99.90
5956;DHT22;3004;48.080;11.600;2022-11-20T20:02:58;1.30;99.90
5956;DHT22;3004;48.080;11.600;2022-11-20T20:05:43;1.20;99.90
5956;DHT22;3004;48.080;11.600;2022-11-20T20:08:18;1.30;99.90
5956;DHT22;3004;48.080;11.600;2022-11-20T20:10:47;1.30;99.90
5956;DHT22;3004;48.080;11.600;2022-11-20T20:13:17;1.30;99.90
5956;DHT22;3004;48.080;11.600;2022-11-20T20:15:47;1.30;99.90
5956;DHT22;3004;48.080;11.600;2022-11-20T20:18:23;1.30;99.90
5956;DHT22;3004;48.080;11.600;2022-11-20T20:20:57;1.30;99.90
5956;DHT22;3004;48.080;11.600;2022-11-20T20:23:40;1.30;99.90
5956;DHT22;3004;48.080;11.600;2022-11-20T20:26:25;1.20;99.90
5956;DHT22;3004;48.080;11.600;2022-11-20T20:29:00;1.30;99.90
5956;DHT22;3004;48.080;11.600;2022-11-20T20:31:36;1.30;99.90
5956;DHT22;3004;48.080;11.600;2022-11-20T20:34:08;1.30;99.90
5956;DHT22;3004;48.080;11.600;2022-11-20T20:36:46;1.20;99.90
5956;DHT22;3004;48.080;11.600;2022-11-20T20:39:17;1.30;99.90
5956;DHT22;3004;48.080;11.600;2022-11-20T20:45:12;1.30;99.90
5956;DHT22;3004;48.080;11.600;2022-11-20T20:47:40;1.30;99.90
5956;DHT22;3004;48.080;11.600;2022-11-20T20:50:18;1.40;99.90
5956;DHT22;3004;48.080;11.600;2022-11-20T21:02:33;1.80;99.90
5956;DHT22;3004;48.080;11.600;2022-11-20T21:05:26;1.80;99.90
5956;DHT22;3004;48.080;11.600;2022-11-20T21:08:00;1.80;99.90
5956;DHT22;3004;48.080;11.600;2022-11-20T21:10:51;1.80;99.90
5956;DHT22;3004;48.080;11.600;2022-11-20T21:13:47;1.90;99.90
5956;DHT22;3004;48.080;11.600;2022-11-20T21:16:48;2.00;99.90
5956;DHT22;3004;48.080;11.600;2022-11-20T21:22:43;2.10;99.90
5956;DHT22;3004;48.080;11.600;2022-11-20T21:25:11;2.20;99.90
5956;DHT22;3004;48.080;11.600;2022-11-20T21:27:39;2.20;99.90
5956;DHT22;3004;48.080;11.600;2022-11-20T21:30:13;2.20;99.90
5956;DHT22;3004;48.080;11.600;2022-11-20T21:32:44;2.30;99.90
5956;DHT22;3004;48.080;11.600;2022-11-20T21:35:15;2.70;99.90
5956;DHT22;3004;48.080;11.600;2022-11-20T21:37:52;3.00;99.90
5956;DHT22;3004;48.080;11.600;2022-11-20T21:43:06;3.50;99.90
5956;DHT22;3004;48.080;11.600;2022-11-20T21:45:38;3.80;99.90
5956;DHT22;3004;48.080;11.600;2022-11-20T21:48:11;4.10;99.90
5956;DHT22;3004;48.080;11.600;2022-11-20T21:50:38;4.30;99.90
5956;DHT22;3004;48.080;11.600;2022-11-20T21:53:31;4.40;99.90
5956;DHT22;3004;48.080;11.600;2022-11-20T21:55:59;4.60;99.90
5956;DHT22;3004;48.080;11.600;2022-11-20T21:58:33;4.70;99.90
5956;DHT22;3004;48.080;11.600;2022-11-20T22:01:20;4.50;99.90
5956;DHT22;3004;48.080;11.600;2022-11-20T22:03:56;4.30;99.90
5956;DHT22;3004;48.080;11.600;2022-11-20T22:06:29;4.00;99.90
5956;DHT22;3004;48.080;11.600;2022-11-20T22:09:12;3.80;99.90
5956;DHT22;3004;48.080;11.600;2022-11-20T22:15:14;3.60;99.90
5956;DHT22;3004;48.080;11.600;2022-11-20T22:17:52;3.60;99.90
5956;DHT22;3004;48.080;11.600;2022-11-20T22:20:36;3.50;99.90
5956;DHT22;3004;48.080;11.600;2022-11-20T22:23:16;3.40;99.90
5956;DHT22;3004;48.080;11.600;2022-11-20T22:34:31;3.40;99.90
5956;DHT22;3004;48.080;11.600;2022-11-20T22:37:02;3.40;99.90
5956;DHT22;3004;48.080;11.600;2022-11-20T22:39:44;3.40;99.90
5956;DHT22;3004;48.080;11.600;2022-11-20T22:42:16;3.40;99.90
5956;DHT22;3004;48.080;11.600;2022-11-20T22:44:43;3.40;99.90
5956;DHT22;3004;48.080;11.600;2022-11-20T22:47:11;3.40;99.90
5956;DHT22;3004;48.080;11.600;2022-11-20T22:49:46;3.40;99.90
